sensor_id;sensor_type;location;lat;lon;timestamp;temperature;humidity
21590;DHT22;10957;50.968;6.828;2023-05-29T00:03:57;15.00;99.90
21590;DHT22;10957;50.968;6.828;2023-05-29T00:08:58;14.90;99.90
21590;DHT22;10957;50.968;6.828;2023-05-29T00:14:00;14.70;99.90
21590;DHT22;10957;50.968;6.828;2023-05-29T00:19:01;14.30;99.90
21590;DHT22;10957;50.968;6.828;2023-05-29T00:24:02;14.60;99.90
21590;DHT22;10957;50.968;6.828;2023-05-29T00:29:03;14.70;99.90
21590;DHT22;10957;50.968;6.828;2023-05-29T00:34:06;14.00;99.90
21590;DHT22;10957;50.968;6.828;2023-05-29T00:39:07;14.10;99.90
21590;DHT22;10957;50.968;6.828;2023-05-29T00:44:08;14.10;99.90
21590;DHT22;10957;50.968;6.828;2023-05-29T00:49:09;13.90;99.90
21590;DHT22;10957;50.968;6.828;2023-05-29T00:54:16;13.90;99.90
21590;DHT22;10957;50.968;6.828;2023-05-29T00:59:19;13.30;99.90
21590;DHT22;10957;50.968;6.828;2023-05-29T01:04:23;13.40;99.90
21590;DHT22;10957;50.968;6.828;2023-05-29T01:09:24;13.50;99.90
21590;DHT22;10957;50.968;6.828;2023-05-29T01:14:50;13.30;99.90
21590;DHT22;10957;50.968;6.828;2023-05-29T01:25:19;13.60;99.90
21590;DHT22;10957;50.968;6.828;2023-05-29T01:30:20;13.00;99.90
21590;DHT22;10957;50.968;6.828;2023-05-29T01:35:23;13.40;99.90
21590;DHT22;10957;50.968;6.828;2023-05-29T01:40:25;13.40;99.90
21590;DHT22;10957;50.968;6.828;2023-05-29T01:45:27;13.40;99.90
21590;DHT22;10957;50.968;6.828;2023-05-29T01:50:29;13.00;99.90
21590;DHT22;10957;50.968;6.828;2023-05-29T01:55:30;12.60;99.90
21590;DHT22;10957;50.968;6.828;2023-05-29T02:00:31;12.80;99.90
21590;DHT22;10957;50.968;6.828;2023-05-29T02:05:33;13.30;99.90
21590;DHT22;10957;50.968;6.828;2023-05-29T02:10:34;13.20;99.90
21590;DHT22;10957;50.968;6.828;2023-05-29T02:15:36;12.90;99.90
21590;DHT22;10957;50.968;6.828;2023-05-29T02:20:38;12.70;99.90
21590;DHT22;10957;50.968;6.828;2023-05-29T02:25:39;13.00;99.90
21590;DHT22;10957;50.968;6.828;2023-05-29T02:30:41;12.90;99.90
21590;DHT22;10957;50.968;6.828;2023-05-29T02:35:44;12.90;99.90
21590;DHT22;10957;50.968;6.828;2023-05-29T02:40:45;12.90;99.90
21590;DHT22;10957;50.968;6.828;2023-05-29T02:45:46;13.00;99.90
21590;DHT22;10957;50.968;6.828;2023-05-29T02:50:47;12.40;99.90
21590;DHT22;10957;50.968;6.828;2023-05-29T02:55:49;12.70;99.90
21590;DHT22;10957;50.968;6.828;2023-05-29T03:00:51;12.10;99.90
21590;DHT22;10957;50.968;6.828;2023-05-29T03:05:54;12.50;99.90
21590;DHT22;10957;50.968;6.828;2023-05-29T03:10:56;12.50;99.90
21590;DHT22;10957;50.968;6.828;2023-05-29T03:15:58;12.10;99.90
21590;DHT22;10957;50.968;6.828;2023-05-29T03:20:59;12.50;99.90
21590;DHT22;10957;50.968;6.828;2023-05-29T03:26:02;12.20;99.90
21590;DHT22;10957;50.968;6.828;2023-05-29T03:31:05;12.00;99.90
21590;DHT22;10957;50.968;6.828;2023-05-29T03:36:06;11.90;99.90
21590;DHT22;10957;50.968;6.828;2023-05-29T03:41:09;11.90;99.90
21590;DHT22;10957;50.968;6.828;2023-05-29T03:46:12;11.70;99.90
21590;DHT22;10957;50.968;6.828;2023-05-29T03:51:13;11.80;99.90
21590;DHT22;10957;50.968;6.828;2023-05-29T03:56:15;11.60;99.90
21590;DHT22;10957;50.968;6.828;2023-05-29T04:01:16;11.60;99.90
21590;DHT22;10957;50.968;6.828;2023-05-29T04:06:17;11.80;99.90
21590;DHT22;10957;50.968;6.828;2023-05-29T04:11:19;11.80;99.90
21590;DHT22;10957;50.968;6.828;2023-05-29T04:16:24;11.60;99.90
21590;DHT22;10957;50.968;6.828;2023-05-29T04:21:25;11.50;99.90
21590;DHT22;10957;50.968;6.828;2023-05-29T04:26:28;11.60;99.90
21590;DHT22;10957;50.968;6.828;2023-05-29T04:31:29;11.50;99.90
21590;DHT22;10957;50.968;6.828;2023-05-29T04:36:31;11.60;99.90
21590;DHT22;10957;50.968;6.828;2023-05-29T04:41:42;11.70;99.90
21590;DHT22;10957;50.968;6.828;2023-05-29T04:46:47;11.70;99.90
21590;DHT22;10957;50.968;6.828;2023-05-29T04:51:50;12.10;99.90
21590;DHT22;10957;50.968;6.828;2023-05-29T04:56:54;12.10;99.90
21590;DHT22;10957;50.968;6.828;2023-05-29T05:01:59;12.00;99.90
21590;DHT22;10957;50.968;6.828;2023-05-29T05:07:00;11.80;99.90
21590;DHT22;10957;50.968;6.828;2023-05-29T05:12:03;12.00;99.90
21590;DHT22;10957;50.968;6.828;2023-05-29T05:17:05;12.20;99.90
21590;DHT22;10957;50.968;6.828;2023-05-29T05:22:06;12.40;99.90
21590;DHT22;10957;50.968;6.828;2023-05-29T05:27:08;12.20;99.90
21590;DHT22;10957;50.968;6.828;2023-05-29T05:32:10;12.30;99.90
21590;DHT22;10957;50.968;6.828;2023-05-29T05:37:11;12.40;99.90
21590;DHT22;10957;50.968;6.828;2023-05-29T05:42:15;12.60;99.90
21590;DHT22;10957;50.968;6.828;2023-05-29T05:47:32;12.60;99.90
21590;DHT22;10957;50.968;6.828;2023-05-29T05:52:34;12.60;99.90
21590;DHT22;10957;50.968;6.828;2023-05-29T05:57:38;12.80;99.90
21590;DHT22;10957;50.968;6.828;2023-05-29T06:02:39;13.30;99.90
21590;DHT22;10957;50.968;6.828;2023-05-29T06:07:49;13.80;99.90
21590;DHT22;10957;50.968;6.828;2023-05-29T06:12:54;14.10;99.90
21590;DHT22;10957;50.968;6.828;2023-05-29T06:18:01;14.50;99.90
21590;DHT22;10957;50.968;6.828;2023-05-29T06:23:04;15.00;99.90
21590;DHT22;10957;50.968;6.828;2023-05-29T06:28:07;15.30;99.90
21590;DHT22;10957;50.968;6.828;2023-05-29T06:33:09;15.70;99.90
21590;DHT22;10957;50.968;6.828;2023-05-29T06:38:16;16.30;99.90
21590;DHT22;10957;50.968;6.828;2023-05-29T06:43:18;16.40;99.90
21590;DHT22;10957;50.968;6.828;2023-05-29T06:48:23;17.00;99.90
21590;DHT22;10957;50.968;6.828;2023-05-29T06:53:24;17.10;99.90
21590;DHT22;10957;50.968;6.828;2023-05-29T06:58:30;17.40;99.90
21590;DHT22;10957;50.968;6.828;2023-05-29T07:03:32;18.20;99.90
21590;DHT22;10957;50.968;6.828;2023-05-29T07:08:33;18.50;99.90
21590;DHT22;10957;50.968;6.828;2023-05-29T07:13:35;18.80;99.90
21590;DHT22;10957;50.968;6.828;2023-05-29T07:18:37;19.20;99.90
21590;DHT22;10957;50.968;6.828;2023-05-29T07:23:39;18.90;99.90
21590;DHT22;10957;50.968;6.828;2023-05-29T07:28:41;19.50;99.90
21590;DHT22;10957;50.968;6.828;2023-05-29T07:33:43;20.20;99.90
21590;DHT22;10957;50.968;6.828;2023-05-29T07:38:45;19.70;99.90
21590;DHT22;10957;50.968;6.828;2023-05-29T07:43:49;19.20;99.90
21590;DHT22;10957;50.968;6.828;2023-05-29T07:48:54;19.70;99.90
21590;DHT22;10957;50.968;6.828;2023-05-29T07:53:55;20.00;99.90
21590;DHT22;10957;50.968;6.828;2023-05-29T07:58:57;20.00;99.90
21590;DHT22;10957;50.968;6.828;2023-05-29T08:03:58;19.00;99.90
21590;DHT22;10957;50.968;6.828;2023-05-29T08:09:04;19.80;99.90
21590;DHT22;10957;50.968;6.828;2023-05-29T08:14:07;20.90;99.90
21590;DHT22;10957;50.968;6.828;2023-05-29T08:19:11;20.50;99.90
21590;DHT22;10957;50.968;6.828;2023-05-29T08:24:12;21.00;99.90
21590;DHT22;10957;50.968;6.828;2023-05-29T08:29:13;21.40;99.90
21590;DHT22;10957;50.968;6.828;2023-05-29T08:34:15;20.80;97.10
21590;DHT22;10957;50.968;6.828;2023-05-29T08:39:16;21.40;98.10
21590;DHT22;10957;50.968;6.828;2023-05-29T08:44:21;21.20;99.90
21590;DHT22;10957;50.968;6.828;2023-05-29T08:49:23;21.10;93.80
21590;DHT22;10957;50.968;6.828;2023-05-29T08:54:26;20.80;99.90
21590;DHT22;10957;50.968;6.828;2023-05-29T08:59:27;21.70;99.90
21590;DHT22;10957;50.968;6.828;2023-05-29T09:04:31;21.40;99.90
21590;DHT22;10957;50.968;6.828;2023-05-29T09:09:32;21.30;98.40
21590;DHT22;10957;50.968;6.828;2023-05-29T09:14:44;20.80;99.90
21590;DHT22;10957;50.968;6.828;2023-05-29T09:19:48;21.10;92.00
21590;DHT22;10957;50.968;6.828;2023-05-29T09:24:49;20.70;93.80
21590;DHT22;10957;50.968;6.828;2023-05-29T09:29:52;21.20;99.90
21590;DHT22;10957;50.968;6.828;2023-05-29T09:34:53;21.30;97.90
21590;DHT22;10957;50.968;6.828;2023-05-29T09:39:55;21.50;99.90
21590;DHT22;10957;50.968;6.828;2023-05-29T09:44:59;21.00;97.10
21590;DHT22;10957;50.968;6.828;2023-05-29T09:50:04;20.70;95.80
21590;DHT22;10957;50.968;6.828;2023-05-29T09:55:08;21.20;97.70
21590;DHT22;10957;50.968;6.828;2023-05-29T10:00:10;20.70;88.40
21590;DHT22;10957;50.968;6.828;2023-05-29T10:05:14;20.90;92.20
21590;DHT22;10957;50.968;6.828;2023-05-29T10:10:17;21.20;94.80
21590;DHT22;10957;50.968;6.828;2023-05-29T10:15:19;21.00;97.50
21590;DHT22;10957;50.968;6.828;2023-05-29T10:20:22;21.00;97.10
21590;DHT22;10957;50.968;6.828;2023-05-29T10:25:24;20.80;93.00
21590;DHT22;10957;50.968;6.828;2023-05-29T10:30:54;20.80;93.60
21590;DHT22;10957;50.968;6.828;2023-05-29T10:36:19;20.10;79.80
21590;DHT22;10957;50.968;6.828;2023-05-29T10:51:45;20.60;93.50
21590;DHT22;10957;50.968;6.828;2023-05-29T10:56:56;20.70;94.60
21590;DHT22;10957;50.968;6.828;2023-05-29T11:01:58;20.80;96.70
21590;DHT22;10957;50.968;6.828;2023-05-29T11:07:00;20.80;99.60
21590;DHT22;10957;50.968;6.828;2023-05-29T11:27:58;21.00;97.60
21590;DHT22;10957;50.968;6.828;2023-05-29T11:33:02;21.20;97.70
21590;DHT22;10957;50.968;6.828;2023-05-29T11:38:06;21.10;90.80
21590;DHT22;10957;50.968;6.828;2023-05-29T11:43:12;20.80;74.40
21590;DHT22;10957;50.968;6.828;2023-05-29T11:48:13;21.20;90.50
21590;DHT22;10957;50.968;6.828;2023-05-29T11:53:15;21.10;78.00
21590;DHT22;10957;50.968;6.828;2023-05-29T11:58:16;21.10;91.90
21590;DHT22;10957;50.968;6.828;2023-05-29T12:03:18;21.30;89.40
21590;DHT22;10957;50.968;6.828;2023-05-29T12:08:23;21.30;89.70
21590;DHT22;10957;50.968;6.828;2023-05-29T12:13:25;21.10;70.80
21590;DHT22;10957;50.968;6.828;2023-05-29T12:18:26;21.20;79.40
21590;DHT22;10957;50.968;6.828;2023-05-29T12:23:29;21.10;66.90
21590;DHT22;10957;50.968;6.828;2023-05-29T12:28:30;21.30;74.40
21590;DHT22;10957;50.968;6.828;2023-05-29T12:33:32;21.50;71.70
21590;DHT22;10957;50.968;6.828;2023-05-29T12:38:49;21.50;72.20
21590;DHT22;10957;50.968;6.828;2023-05-29T12:43:53;21.40;81.60
21590;DHT22;10957;50.968;6.828;2023-05-29T12:48:56;21.70;72.10
21590;DHT22;10957;50.968;6.828;2023-05-29T12:53:57;21.30;63.60
21590;DHT22;10957;50.968;6.828;2023-05-29T12:58:59;21.50;74.30
21590;DHT22;10957;50.968;6.828;2023-05-29T13:04:00;21.30;65.80
21590;DHT22;10957;50.968;6.828;2023-05-29T13:09:02;21.60;79.30
21590;DHT22;10957;50.968;6.828;2023-05-29T13:14:03;21.60;65.30
21590;DHT22;10957;50.968;6.828;2023-05-29T13:19:05;21.50;62.30
21590;DHT22;10957;50.968;6.828;2023-05-29T13:24:06;21.40;62.60
21590;DHT22;10957;50.968;6.828;2023-05-29T13:29:08;21.60;60.60
21590;DHT22;10957;50.968;6.828;2023-05-29T13:34:09;21.60;60.40
21590;DHT22;10957;50.968;6.828;2023-05-29T13:39:11;21.70;60.10
21590;DHT22;10957;50.968;6.828;2023-05-29T13:44:13;21.70;53.00
21590;DHT22;10957;50.968;6.828;2023-05-29T13:49:14;21.70;56.60
21590;DHT22;10957;50.968;6.828;2023-05-29T13:54:16;21.80;45.00
21590;DHT22;10957;50.968;6.828;2023-05-29T13:59:18;21.80;53.50
21590;DHT22;10957;50.968;6.828;2023-05-29T14:04:20;22.10;66.00
21590;DHT22;10957;50.968;6.828;2023-05-29T14:09:21;21.90;41.20
21590;DHT22;10957;50.968;6.828;2023-05-29T14:14:28;21.80;52.70
21590;DHT22;10957;50.968;6.828;2023-05-29T14:19:30;21.80;53.30
21590;DHT22;10957;50.968;6.828;2023-05-29T14:24:32;21.80;46.90
21590;DHT22;10957;50.968;6.828;2023-05-29T14:29:33;21.70;37.10
21590;DHT22;10957;50.968;6.828;2023-05-29T14:34:34;21.60;46.40
21590;DHT22;10957;50.968;6.828;2023-05-29T14:39:36;21.90;51.30
21590;DHT22;10957;50.968;6.828;2023-05-29T14:44:37;22.10;49.20
21590;DHT22;10957;50.968;6.828;2023-05-29T14:49:38;21.60;30.70
21590;DHT22;10957;50.968;6.828;2023-05-29T14:54:40;21.80;38.00
21590;DHT22;10957;50.968;6.828;2023-05-29T14:59:42;21.60;33.70
21590;DHT22;10957;50.968;6.828;2023-05-29T15:04:43;21.60;34.00
21590;DHT22;10957;50.968;6.828;2023-05-29T15:09:44;22.10;46.50
21590;DHT22;10957;50.968;6.828;2023-05-29T15:14:46;21.70;34.00
21590;DHT22;10957;50.968;6.828;2023-05-29T15:19:47;21.50;32.70
21590;DHT22;10957;50.968;6.828;2023-05-29T15:24:49;21.30;34.40
21590;DHT22;10957;50.968;6.828;2023-05-29T15:29:50;21.00;22.50
21590;DHT22;10957;50.968;6.828;2023-05-29T15:34:51;21.00;22.40
21590;DHT22;10957;50.968;6.828;2023-05-29T15:39:55;21.10;29.60
21590;DHT22;10957;50.968;6.828;2023-05-29T15:44:56;20.80;20.10
21590;DHT22;10957;50.968;6.828;2023-05-29T15:49:58;20.60;15.80
21590;DHT22;10957;50.968;6.828;2023-05-29T15:54:59;20.60;25.80
21590;DHT22;10957;50.968;6.828;2023-05-29T16:00:00;20.40;21.10
21590;DHT22;10957;50.968;6.828;2023-05-29T16:05:02;20.50;20.70
21590;DHT22;10957;50.968;6.828;2023-05-29T16:10:04;20.30;23.70
21590;DHT22;10957;50.968;6.828;2023-05-29T16:15:06;20.40;19.30
21590;DHT22;10957;50.968;6.828;2023-05-29T16:20:09;20.40;19.90
21590;DHT22;10957;50.968;6.828;2023-05-29T16:25:10;20.80;28.90
21590;DHT22;10957;50.968;6.828;2023-05-29T16:30:12;20.90;11.40
21590;DHT22;10957;50.968;6.828;2023-05-29T16:35:14;21.00;12.90
21590;DHT22;10957;50.968;6.828;2023-05-29T16:40:15;20.70;2.70
21590;DHT22;10957;50.968;6.828;2023-05-29T16:45:19;20.70;11.00
21590;DHT22;10957;50.968;6.828;2023-05-29T16:50:20;20.70;1.00
21590;DHT22;10957;50.968;6.828;2023-05-29T16:55:22;20.70;5.50
21590;DHT22;10957;50.968;6.828;2023-05-29T17:00:26;20.80;1.20
21590;DHT22;10957;50.968;6.828;2023-05-29T17:05:27;20.60;1.00
21590;DHT22;10957;50.968;6.828;2023-05-29T17:10:32;20.40;1.00
21590;DHT22;10957;50.968;6.828;2023-05-29T17:15:34;20.40;1.00
21590;DHT22;10957;50.968;6.828;2023-05-29T17:20:35;20.20;1.00
21590;DHT22;10957;50.968;6.828;2023-05-29T17:25:37;20.30;1.00
21590;DHT22;10957;50.968;6.828;2023-05-29T17:30:38;20.20;1.00
21590;DHT22;10957;50.968;6.828;2023-05-29T17:35:39;20.10;1.00
21590;DHT22;10957;50.968;6.828;2023-05-29T17:40:41;20.10;1.00
21590;DHT22;10957;50.968;6.828;2023-05-29T17:45:42;20.00;1.00
21590;DHT22;10957;50.968;6.828;2023-05-29T17:50:43;19.90;1.00
21590;DHT22;10957;50.968;6.828;2023-05-29T17:55:45;19.70;1.00
21590;DHT22;10957;50.968;6.828;2023-05-29T18:00:46;19.60;1.00
21590;DHT22;10957;50.968;6.828;2023-05-29T18:05:47;19.50;1.00
21590;DHT22;10957;50.968;6.828;2023-05-29T18:10:48;19.40;1.00
21590;DHT22;10957;50.968;6.828;2023-05-29T18:15:50;19.40;1.00
21590;DHT22;10957;50.968;6.828;2023-05-29T18:20:51;19.30;1.00
21590;DHT22;10957;50.968;6.828;2023-05-29T18:25:53;19.10;1.00
21590;DHT22;10957;50.968;6.828;2023-05-29T18:30:54;18.90;1.00
21590;DHT22;10957;50.968;6.828;2023-05-29T18:35:55;18.70;1.00
21590;DHT22;10957;50.968;6.828;2023-05-29T18:40:57;18.50;1.00
21590;DHT22;10957;50.968;6.828;2023-05-29T18:45:58;18.30;1.00
21590;DHT22;10957;50.968;6.828;2023-05-29T18:51:00;18.20;1.00
21590;DHT22;10957;50.968;6.828;2023-05-29T18:56:02;18.10;1.00
21590;DHT22;10957;50.968;6.828;2023-05-29T19:01:03;18.00;1.00
21590;DHT22;10957;50.968;6.828;2023-05-29T19:06:06;17.90;1.00
21590;DHT22;10957;50.968;6.828;2023-05-29T19:11:08;17.70;1.00
21590;DHT22;10957;50.968;6.828;2023-05-29T19:16:12;17.60;1.00
21590;DHT22;10957;50.968;6.828;2023-05-29T19:21:14;17.50;1.00
21590;DHT22;10957;50.968;6.828;2023-05-29T19:26:15;17.40;1.00
21590;DHT22;10957;50.968;6.828;2023-05-29T19:31:17;17.20;1.00
21590;DHT22;10957;50.968;6.828;2023-05-29T19:36:20;17.10;1.00
21590;DHT22;10957;50.968;6.828;2023-05-29T19:41:21;17.10;1.00
21590;DHT22;10957;50.968;6.828;2023-05-29T19:46:23;16.90;1.00
21590;DHT22;10957;50.968;6.828;2023-05-29T19:51:26;16.80;1.00
21590;DHT22;10957;50.968;6.828;2023-05-29T19:56:27;16.70;1.00
21590;DHT22;10957;50.968;6.828;2023-05-29T20:01:29;16.50;1.00
21590;DHT22;10957;50.968;6.828;2023-05-29T20:06:30;16.40;1.00
21590;DHT22;10957;50.968;6.828;2023-05-29T20:11:34;16.20;1.00
21590;DHT22;10957;50.968;6.828;2023-05-29T20:16:36;16.10;1.00
21590;DHT22;10957;50.968;6.828;2023-05-29T20:21:37;15.90;1.00
21590;DHT22;10957;50.968;6.828;2023-05-29T20:26:39;15.70;1.00
21590;DHT22;10957;50.968;6.828;2023-05-29T20:31:40;15.60;1.00
21590;DHT22;10957;50.968;6.828;2023-05-29T20:36:42;15.50;1.00
21590;DHT22;10957;50.968;6.828;2023-05-29T20:41:44;15.30;1.00
21590;DHT22;10957;50.968;6.828;2023-05-29T20:46:46;15.10;1.00
21590;DHT22;10957;50.968;6.828;2023-05-29T20:51:47;15.00;1.00
21590;DHT22;10957;50.968;6.828;2023-05-29T20:56:48;15.00;1.00
21590;DHT22;10957;50.968;6.828;2023-05-29T21:01:50;14.50;1.00
21590;DHT22;10957;50.968;6.828;2023-05-29T21:06:52;14.80;1.00
21590;DHT22;10957;50.968;6.828;2023-05-29T21:11:53;14.90;1.00
21590;DHT22;10957;50.968;6.828;2023-05-29T21:16:55;14.70;1.00
21590;DHT22;10957;50.968;6.828;2023-05-29T21:21:58;14.70;1.00
21590;DHT22;10957;50.968;6.828;2023-05-29T21:26:59;14.50;1.00
21590;DHT22;10957;50.968;6.828;2023-05-29T21:32:02;14.70;1.00
21590;DHT22;10957;50.968;6.828;2023-05-29T21:37:04;14.60;1.00
21590;DHT22;10957;50.968;6.828;2023-05-29T21:42:06;14.60;1.00
21590;DHT22;10957;50.968;6.828;2023-05-29T21:47:07;14.60;1.00
21590;DHT22;10957;50.968;6.828;2023-05-29T21:52:09;14.40;1.00
21590;DHT22;10957;50.968;6.828;2023-05-29T21:57:14;14.30;1.00
21590;DHT22;10957;50.968;6.828;2023-05-29T22:02:16;14.10;1.00
21590;DHT22;10957;50.968;6.828;2023-05-29T22:07:17;14.40;1.00
21590;DHT22;10957;50.968;6.828;2023-05-29T22:12:18;14.10;1.00
21590;DHT22;10957;50.968;6.828;2023-05-29T22:17:21;13.80;1.00
21590;DHT22;10957;50.968;6.828;2023-05-29T22:22:22;14.20;1.00
21590;DHT22;10957;50.968;6.828;2023-05-29T22:27:25;13.80;1.00
21590;DHT22;10957;50.968;6.828;2023-05-29T22:32:27;13.80;1.00
21590;DHT22;10957;50.968;6.828;2023-05-29T22:37:28;13.60;1.00
21590;DHT22;10957;50.968;6.828;2023-05-29T22:42:29;13.30;1.00
21590;DHT22;10957;50.968;6.828;2023-05-29T22:47:31;13.20;1.00
21590;DHT22;10957;50.968;6.828;2023-05-29T22:52:33;13.20;1.00
21590;DHT22;10957;50.968;6.828;2023-05-29T22:57:34;13.10;1.00
21590;DHT22;10957;50.968;6.828;2023-05-29T23:02:36;12.70;1.00
21590;DHT22;10957;50.968;6.828;2023-05-29T23:07:38;12.60;1.00
21590;DHT22;10957;50.968;6.828;2023-05-29T23:12:40;12.50;1.00
21590;DHT22;10957;50.968;6.828;2023-05-29T23:17:41;12.70;1.00
21590;DHT22;10957;50.968;6.828;2023-05-29T23:22:42;12.70;1.00
21590;DHT22;10957;50.968;6.828;2023-05-29T23:27:44;12.60;1.00
21590;DHT22;10957;50.968;6.828;2023-05-29T23:32:45;13.10;1.00
21590;DHT22;10957;50.968;6.828;2023-05-29T23:37:47;12.90;1.00
21590;DHT22;10957;50.968;6.828;2023-05-29T23:42:49;12.60;1.00
21590;DHT22;10957;50.968;6.828;2023-05-29T23:47:50;12.50;1.00
21590;DHT22;10957;50.968;6.828;2023-05-29T23:52:52;12.50;1.00
21590;DHT22;10957;50.968;6.828;2023-05-29T23:57:54;12.90;1.00
